Time;durP1;ratioP1;P1;durP2;ratioP2;P2;SDS_P1;SDS_P2;PMS_P1;PMS_P2;Temp;Humidity;BMP_temperature;BMP_pressure;BME280_temperature;BME280_humidity;BME280_pressure;Samples;Min_cycle;Max_cycle;Signal;HPM_P1;HPM_P2
2023/05/11 00:00:19;;;;;;;18.92;9.75;;;;;;;;;;5051461;28;20086;-70
2023/05/11 00:02:45;;;;;;;17.73;9.65;;;;;;;;;;5051914;28;20036;-70
2023/05/11 00:05:10;;;;;;;17.83;9.95;;;;;;;;;;5051762;28;20039;-70
2023/05/11 00:07:36;;;;;;;18.27;10.02;;;;;;;;;;5051460;28;20041;-70
2023/05/11 00:10:02;;;;;;;15.00;10.07;;;;;;;;;;5051235;28;20025;-70
2023/05/11 00:12:28;;;;;;;16.17;10.88;;;;;;;;;;5051433;28;20029;-71
2023/05/11 00:14:53;;;;;;;18.70;10.90;;;;;;;;;;5051773;28;20024;-70
2023/05/11 00:17:19;;;;;;;16.92;11.13;;;;;;;;;;5051770;28;20470;-70
2023/05/11 00:19:45;;;;;;;16.67;11.07;;;;;;;;;;5050264;28;20410;-71
2023/05/11 00:22:11;;;;;;;18.83;11.27;;;;;;;;;;5051621;28;20025;-70
2023/05/11 00:24:38;;;;;;;18.15;10.52;;;;;;;;;;5051868;28;20031;-69
2023/05/11 00:27:04;;;;;;;14.13;9.98;;;;;;;;;;5050955;28;20163;-70
2023/05/11 00:29:30;;;;;;;15.13;9.85;;;;;;;;;;5051043;28;20032;-69
2023/05/11 00:31:56;;;;;;;15.15;9.35;;;;;;;;;;5049868;28;20039;-70
2023/05/11 00:34:22;;;;;;;16.83;9.50;;;;;;;;;;5051499;28;20028;-70
2023/05/11 00:36:48;;;;;;;17.00;8.73;;;;;;;;;;5051176;28;20036;-70
2023/05/11 00:39:14;;;;;;;14.80;8.32;;;;;;;;;;5031642;28;20024;-70
2023/05/11 00:41:40;;;;;;;12.35;8.40;;;;;;;;;;5066701;28;20069;-70
2023/05/11 00:44:05;;;;;;;12.77;7.78;;;;;;;;;;5049875;28;20029;-70
2023/05/11 00:46:32;;;;;;;12.27;7.80;;;;;;;;;;5041561;28;20376;-70
2023/05/11 00:48:58;;;;;;;11.38;7.30;;;;;;;;;;5050551;28;20017;-70
2023/05/11 00:51:25;;;;;;;16.20;7.68;;;;;;;;;;5041342;28;20112;-70
2023/05/11 00:53:51;;;;;;;15.05;7.50;;;;;;;;;;5046330;28;20475;-70
2023/05/11 00:56:17;;;;;;;13.25;7.68;;;;;;;;;;5029791;28;20041;-70
2023/05/11 00:58:42;;;;;;;13.57;6.97;;;;;;;;;;5026824;28;20053;-70
2023/05/11 01:01:09;;;;;;;13.68;8.20;;;;;;;;;;5045514;28;20039;-70
2023/05/11 01:03:35;;;;;;;12.32;7.40;;;;;;;;;;5047387;28;20074;-70
2023/05/11 01:06:17;;;;;;;13.43;7.85;;;;;;;;;;5045576;28;20032;-70
2023/05/11 01:09:08;;;;;;;15.20;8.63;;;;;;;;;;5053141;28;20094;-70
2023/05/11 01:11:59;;;;;;;15.07;8.60;;;;;;;;;;5053962;28;20087;-69
2023/05/11 01:14:40;;;;;;;13.25;8.07;;;;;;;;;;5053725;28;20068;-70
2023/05/11 01:17:15;;;;;;;15.48;8.00;;;;;;;;;;5054731;28;20041;-70
2023/05/11 01:19:52;;;;;;;15.82;8.50;;;;;;;;;;5036984;28;20033;-70
2023/05/11 01:22:38;;;;;;;22.92;8.60;;;;;;;;;;5045491;28;20061;-70
2023/05/11 01:25:13;;;;;;;13.80;7.97;;;;;;;;;;5037949;28;20096;-70
2023/05/11 01:28:16;;;;;;;17.65;8.07;;;;;;;;;;5038055;28;20218;-70
2023/05/11 01:30:48;;;;;;;16.67;9.23;;;;;;;;;;5023244;28;20211;-70
2023/05/11 01:33:15;;;;;;;12.63;8.25;;;;;;;;;;5048834;28;20282;-70
2023/05/11 01:35:52;;;;;;;12.52;8.63;;;;;;;;;;5053076;28;20016;-70
2023/05/11 01:38:21;;;;;;;11.75;8.80;;;;;;;;;;5044661;28;20032;-70
2023/05/11 01:40:54;;;;;;;15.90;9.50;;;;;;;;;;5052539;28;20040;-70
2023/05/11 01:43:24;;;;;;;14.32;9.45;;;;;;;;;;5053341;28;20582;-70
2023/05/11 01:45:52;;;;;;;20.05;10.27;;;;;;;;;;5053241;28;20486;-70
2023/05/11 01:48:22;;;;;;;16.63;10.50;;;;;;;;;;5036023;28;20473;-70
2023/05/11 01:50:50;;;;;;;20.98;11.88;;;;;;;;;;5053208;28;20041;-70
2023/05/11 01:53:16;;;;;;;18.42;10.13;;;;;;;;;;5053114;28;20494;-70
2023/05/11 01:55:46;;;;;;;14.98;9.73;;;;;;;;;;5053292;28;20418;-70
2023/05/11 01:58:15;;;;;;;15.18;9.60;;;;;;;;;;5045324;28;20537;-70
2023/05/11 02:00:44;;;;;;;10.68;7.95;;;;;;;;;;5048382;28;20080;-70
2023/05/11 02:03:10;;;;;;;11.57;8.18;;;;;;;;;;5050729;28;20064;-70
2023/05/11 02:05:38;;;;;;;14.68;9.10;;;;;;;;;;5043865;28;20086;-70
2023/05/11 02:08:05;;;;;;;16.77;9.30;;;;;;;;;;5042900;28;20065;-70
2023/05/11 02:10:33;;;;;;;15.80;8.60;;;;;;;;;;5049258;28;20040;-70
2023/05/11 02:13:02;;;;;;;15.55;8.60;;;;;;;;;;5046291;28;20028;-70
2023/05/11 02:15:29;;;;;;;17.40;9.80;;;;;;;;;;5073877;28;21144;-70
2023/05/11 02:17:56;;;;;;;27.98;10.27;;;;;;;;;;5048293;28;20025;-70
2023/05/11 02:20:24;;;;;;;24.58;10.82;;;;;;;;;;5044070;28;20064;-70
2023/05/11 02:22:52;;;;;;;21.92;11.07;;;;;;;;;;5044502;28;20515;-70
2023/05/11 02:25:18;;;;;;;23.20;10.45;;;;;;;;;;5041881;28;20041;-70
2023/05/11 02:27:45;;;;;;;25.20;11.85;;;;;;;;;;5042196;28;20025;-70
2023/05/11 02:30:12;;;;;;;26.73;12.88;;;;;;;;;;5053984;28;20492;-70
2023/05/11 02:32:46;;;;;;;17.38;11.05;;;;;;;;;;5044467;28;20028;-70
2023/05/11 02:35:19;;;;;;;41.75;13.57;;;;;;;;;;5052967;28;20029;-70
2023/05/11 02:37:47;;;;;;;24.00;12.02;;;;;;;;;;5040623;28;20026;-70
2023/05/11 02:40:17;;;;;;;22.85;11.65;;;;;;;;;;5041113;28;20159;-70
2023/05/11 02:42:46;;;;;;;27.55;10.80;;;;;;;;;;5044141;28;20025;-69
2023/05/11 02:45:15;;;;;;;20.75;10.43;;;;;;;;;;5049026;28;20108;-71
2023/05/11 02:47:52;;;;;;;20.80;10.38;;;;;;;;;;5053397;28;20032;-69
2023/05/11 02:50:23;;;;;;;26.95;10.82;;;;;;;;;;5043803;28;20053;-70
2023/05/11 02:52:53;;;;;;;35.35;11.20;;;;;;;;;;5043787;28;20036;-69
2023/05/11 02:55:21;;;;;;;32.13;11.85;;;;;;;;;;5051858;28;20035;-70
2023/05/11 02:57:47;;;;;;;18.73;11.23;;;;;;;;;;5051946;28;20060;-70
2023/05/11 03:00:14;;;;;;;16.73;10.93;;;;;;;;;;5043868;28;20029;-70
2023/05/11 03:02:40;;;;;;;22.63;11.75;;;;;;;;;;5040014;28;20017;-70
2023/05/11 03:05:06;;;;;;;21.30;12.10;;;;;;;;;;5047378;28;20539;-70
2023/05/11 03:07:32;;;;;;;24.45;11.70;;;;;;;;;;5043502;28;20029;-70
2023/05/11 03:09:58;;;;;;;19.02;11.15;;;;;;;;;;5051638;28;20115;-71
2023/05/11 03:12:26;;;;;;;23.98;11.52;;;;;;;;;;5043701;28;20021;-70
2023/05/11 03:14:53;;;;;;;21.15;11.88;;;;;;;;;;5043779;28;20383;-70
2023/05/11 03:17:20;;;;;;;21.38;11.27;;;;;;;;;;5047390;28;20028;-69
2023/05/11 03:19:46;;;;;;;23.85;10.13;;;;;;;;;;5051323;28;20515;-70
2023/05/11 03:22:14;;;;;;;24.15;9.75;;;;;;;;;;5051470;28;20021;-69
2023/05/11 03:24:41;;;;;;;26.55;10.00;;;;;;;;;;5041840;28;20105;-70
2023/05/11 03:27:07;;;;;;;21.48;10.05;;;;;;;;;;5050778;28;20470;-70
2023/05/11 03:29:37;;;;;;;31.58;11.73;;;;;;;;;;5043514;28;20514;-69
2023/05/11 03:32:03;;;;;;;14.55;9.93;;;;;;;;;;5045191;28;20124;-70
2023/05/11 03:34:33;;;;;;;18.15;9.25;;;;;;;;;;5042034;28;20029;-70
2023/05/11 03:37:00;;;;;;;24.27;10.40;;;;;;;;;;5042700;28;20033;-70
2023/05/11 03:39:30;;;;;;;25.70;10.77;;;;;;;;;;5039471;28;20479;-70
2023/05/11 03:41:58;;;;;;;25.65;10.05;;;;;;;;;;5052213;28;20044;-70
2023/05/11 03:44:25;;;;;;;15.00;8.63;;;;;;;;;;5042556;28;20026;-72
2023/05/11 03:46:53;;;;;;;26.88;9.20;;;;;;;;;;5043210;28;20039;-70
2023/05/11 03:49:19;;;;;;;24.88;10.23;;;;;;;;;;5042640;28;20029;-70
2023/05/11 03:51:46;;;;;;;34.70;11.45;;;;;;;;;;5080289;28;20033;-70
2023/05/11 03:54:13;;;;;;;23.58;9.75;;;;;;;;;;5045405;28;20067;-70
2023/05/11 03:56:39;;;;;;;19.15;8.77;;;;;;;;;;5050801;28;20043;-69
2023/05/11 03:59:06;;;;;;;22.73;9.25;;;;;;;;;;5043967;28;20027;-70
2023/05/11 04:01:33;;;;;;;16.23;8.27;;;;;;;;;;5050665;28;20056;-70
2023/05/11 04:03:59;;;;;;;21.38;8.73;;;;;;;;;;5050740;28;20062;-71
2023/05/11 04:06:25;;;;;;;16.15;8.00;;;;;;;;;;5043738;28;20493;-70
2023/05/11 04:09:09;;;;;;;16.17;9.02;;;;;;;;;;5043912;28;20028;-70
2023/05/11 04:11:38;;;;;;;14.38;8.27;;;;;;;;;;5048940;28;20037;-69
2023/05/11 04:14:04;;;;;;;20.08;8.55;;;;;;;;;;5043161;28;20031;-71
2023/05/11 04:16:30;;;;;;;17.02;9.55;;;;;;;;;;5040509;28;20112;-74
2023/05/11 04:18:56;;;;;;;20.80;8.32;;;;;;;;;;5055273;28;20025;-70
2023/05/11 04:21:22;;;;;;;19.80;7.80;;;;;;;;;;5043697;28;20045;-70
2023/05/11 04:23:47;;;;;;;14.75;7.45;;;;;;;;;;5050141;28;20146;-70
2023/05/11 04:26:13;;;;;;;19.08;8.73;;;;;;;;;;5048552;28;20075;-70
2023/05/11 04:28:39;;;;;;;22.67;8.10;;;;;;;;;;5043813;28;20053;-71
2023/05/11 04:31:05;;;;;;;11.10;7.28;;;;;;;;;;5074188;28;20086;-71
2023/05/11 04:33:31;;;;;;;25.35;9.32;;;;;;;;;;5039093;28;20032;-71
2023/05/11 04:35:57;;;;;;;12.90;7.40;;;;;;;;;;5044513;28;20087;-71
2023/05/11 04:38:23;;;;;;;15.60;7.30;;;;;;;;;;5044647;28;20024;-72
2023/05/11 04:40:49;;;;;;;18.00;6.82;;;;;;;;;;5041010;28;20055;-71
2023/05/11 04:43:16;;;;;;;19.08;7.85;;;;;;;;;;5049253;28;20509;-72
2023/05/11 04:45:49;;;;;;;24.13;8.82;;;;;;;;;;5041191;28;20035;-72
2023/05/11 04:48:20;;;;;;;22.15;7.60;;;;;;;;;;5041329;28;20036;-70
2023/05/11 04:50:47;;;;;;;16.45;7.85;;;;;;;;;;5046201;28;20033;-72
2023/05/11 04:53:13;;;;;;;15.35;7.80;;;;;;;;;;5030660;28;20175;-70
2023/05/11 04:55:39;;;;;;;12.32;6.90;;;;;;;;;;5029374;28;20124;-71
2023/05/11 04:58:06;;;;;;;24.17;8.23;;;;;;;;;;5029634;28;20039;-70
2023/05/11 05:00:32;;;;;;;18.80;7.53;;;;;;;;;;5030082;28;20041;-71
2023/05/11 05:02:58;;;;;;;15.48;6.57;;;;;;;;;;5029754;28;20033;-71
2023/05/11 05:05:24;;;;;;;15.90;4.93;;;;;;;;;;5029607;28;20495;-72
2023/05/11 05:07:50;;;;;;;7.03;4.18;;;;;;;;;;5047127;28;20029;-71
2023/05/11 05:10:16;;;;;;;11.25;5.38;;;;;;;;;;5029063;28;20410;-71
2023/05/11 05:12:42;;;;;;;8.82;4.75;;;;;;;;;;5030713;28;20450;-71
2023/05/11 05:15:08;;;;;;;27.15;6.80;;;;;;;;;;5046321;28;20041;-72
2023/05/11 05:17:34;;;;;;;21.85;6.22;;;;;;;;;;5029589;28;20029;-72
2023/05/11 05:20:00;;;;;;;14.02;4.85;;;;;;;;;;5029668;28;20109;-71
2023/05/11 05:22:27;;;;;;;21.20;5.95;;;;;;;;;;5045902;28;20037;-72
2023/05/11 05:24:53;;;;;;;8.95;5.30;;;;;;;;;;5029464;28;20080;-71
2023/05/11 05:27:19;;;;;;;21.90;7.28;;;;;;;;;;5029775;28;20100;-71
2023/05/11 05:29:46;;;;;;;18.10;5.65;;;;;;;;;;5029606;28;20407;-71
2023/05/11 05:32:12;;;;;;;12.05;5.35;;;;;;;;;;5013793;28;20025;-72
2023/05/11 05:34:38;;;;;;;10.98;4.85;;;;;;;;;;5029691;28;20087;-71
2023/05/11 05:37:04;;;;;;;10.35;6.22;;;;;;;;;;5029596;28;20031;-72
2023/05/11 05:39:30;;;;;;;16.33;4.63;;;;;;;;;;5029183;28;20033;-72
2023/05/11 05:41:56;;;;;;;7.60;4.97;;;;;;;;;;5030662;28;20025;-73
2023/05/11 05:44:23;;;;;;;10.13;5.20;;;;;;;;;;5029707;28;20391;-70
2023/05/11 05:46:49;;;;;;;13.43;5.82;;;;;;;;;;5055996;28;20024;-71
2023/05/11 05:49:16;;;;;;;11.30;4.93;;;;;;;;;;5050547;28;20055;-71
2023/05/11 05:51:42;;;;;;;8.95;4.90;;;;;;;;;;5051977;28;20025;-72
2023/05/11 05:54:09;;;;;;;11.50;5.47;;;;;;;;;;5035277;28;20124;-72
2023/05/11 05:56:35;;;;;;;7.47;4.20;;;;;;;;;;5052169;28;20089;-72
2023/05/11 05:59:05;;;;;;;14.05;4.20;;;;;;;;;;5035828;28;20617;-71
2023/05/11 06:01:32;;;;;;;11.65;4.85;;;;;;;;;;5052031;28;20032;-71
2023/05/11 06:03:57;;;;;;;8.35;3.83;;;;;;;;;;5051076;28;20025;-71
2023/05/11 06:06:24;;;;;;;11.77;3.28;;;;;;;;;;5052186;28;20100;-71
2023/05/11 06:08:50;;;;;;;5.95;2.30;;;;;;;;;;5035146;28;20487;-72
2023/05/11 06:11:16;;;;;;;4.75;2.50;;;;;;;;;;5053353;28;20055;-72
2023/05/11 06:13:42;;;;;;;11.80;3.38;;;;;;;;;;5051230;28;20033;-71
2023/05/11 06:16:08;;;;;;;9.65;2.70;;;;;;;;;;5051371;28;20037;-71
2023/05/11 06:18:34;;;;;;;4.78;2.55;;;;;;;;;;5051568;28;20386;-71
2023/05/11 06:21:02;;;;;;;8.15;2.55;;;;;;;;;;5051474;28;20037;-72
2023/05/11 06:23:30;;;;;;;4.93;2.20;;;;;;;;;;5051445;28;20044;-71
2023/05/11 06:25:56;;;;;;;3.95;2.13;;;;;;;;;;5051664;28;20033;-71
2023/05/11 06:28:23;;;;;;;5.10;2.13;;;;;;;;;;5046993;28;20025;-72
2023/05/11 06:30:57;;;;;;;6.18;2.00;;;;;;;;;;5035437;28;20033;-73
2023/05/11 06:33:25;;;;;;;5.38;2.13;;;;;;;;;;5053013;28;20036;-73
2023/05/11 06:35:52;;;;;;;6.07;2.50;;;;;;;;;;5051737;28;20051;-71
2023/05/11 06:38:19;;;;;;;7.03;3.00;;;;;;;;;;5051847;28;20033;-73
2023/05/11 06:40:46;;;;;;;13.88;3.97;;;;;;;;;;5051799;28;20021;-75
2023/05/11 06:43:12;;;;;;;7.47;3.25;;;;;;;;;;5051298;28;20051;-73
2023/05/11 06:45:48;;;;;;;6.78;2.75;;;;;;;;;;5051486;28;20025;-76
2023/05/11 06:48:15;;;;;;;5.97;2.95;;;;;;;;;;5051316;28;20102;-73
2023/05/11 06:50:41;;;;;;;6.53;3.38;;;;;;;;;;5052801;28;20029;-73
2023/05/11 06:53:11;;;;;;;4.78;2.40;;;;;;;;;;5052637;28;20033;-72
2023/05/11 06:55:38;;;;;;;6.28;2.90;;;;;;;;;;5052027;28;20148;-75
2023/05/11 06:58:04;;;;;;;5.82;2.80;;;;;;;;;;5051114;28;20029;-75
2023/05/11 07:00:30;;;;;;;4.47;2.15;;;;;;;;;;5052546;28;20033;-72
2023/05/11 07:02:57;;;;;;;4.72;2.40;;;;;;;;;;5051855;28;20485;-73
2023/05/11 07:05:22;;;;;;;3.42;2.35;;;;;;;;;;5052548;28;20025;-73
2023/05/11 07:07:48;;;;;;;6.53;2.55;;;;;;;;;;5051776;28;20559;-73
2023/05/11 07:10:14;;;;;;;4.25;2.60;;;;;;;;;;5051884;28;20037;-72
2023/05/11 07:12:40;;;;;;;4.97;2.65;;;;;;;;;;5052336;28;20102;-72
2023/05/11 07:15:12;;;;;;;5.35;2.88;;;;;;;;;;5052394;28;20386;-72
2023/05/11 07:17:37;;;;;;;4.35;2.92;;;;;;;;;;5067802;28;20029;-72
2023/05/11 07:20:03;;;;;;;7.25;2.95;;;;;;;;;;5067028;28;20368;-72
2023/05/11 07:22:29;;;;;;;6.43;3.35;;;;;;;;;;5052040;28;20035;-72
2023/05/11 07:24:55;;;;;;;7.35;3.83;;;;;;;;;;5052088;28;20029;-71
2023/05/11 07:27:21;;;;;;;4.40;3.30;;;;;;;;;;5052220;28;20052;-72
2023/05/11 07:29:46;;;;;;;7.40;3.80;;;;;;;;;;5051730;28;20028;-72
2023/05/11 07:32:13;;;;;;;6.97;3.33;;;;;;;;;;5042918;28;20498;-72
2023/05/11 07:34:40;;;;;;;12.65;4.20;;;;;;;;;;5050103;28;20474;-71
2023/05/11 07:37:09;;;;;;;7.43;3.55;;;;;;;;;;5052134;28;20113;-73
2023/05/11 07:39:35;;;;;;;5.65;3.38;;;;;;;;;;5051995;28;20021;-72
2023/05/11 07:42:01;;;;;;;8.95;3.92;;;;;;;;;;5051807;28;20048;-73
2023/05/11 07:44:26;;;;;;;7.88;3.90;;;;;;;;;;5051134;28;20491;-73
2023/05/11 07:46:52;;;;;;;6.30;3.55;;;;;;;;;;5052148;28;20126;-73
2023/05/11 07:49:18;;;;;;;11.60;4.15;;;;;;;;;;5052847;28;20043;-72
2023/05/11 07:51:44;;;;;;;13.52;4.45;;;;;;;;;;5052273;28;20066;-72
2023/05/11 07:54:10;;;;;;;7.13;4.03;;;;;;;;;;5052057;28;20039;-73
2023/05/11 07:56:35;;;;;;;6.30;3.65;;;;;;;;;;5051634;28;20112;-73
2023/05/11 07:59:01;;;;;;;10.75;3.80;;;;;;;;;;5051263;28;20021;-74
2023/05/11 08:01:27;;;;;;;7.95;3.50;;;;;;;;;;5051295;28;20394;-73
2023/05/11 08:03:53;;;;;;;7.05;3.35;;;;;;;;;;5051390;28;20024;-75
2023/05/11 08:06:19;;;;;;;8.45;3.50;;;;;;;;;;5066617;28;20037;-74
2023/05/11 08:08:44;;;;;;;8.05;3.58;;;;;;;;;;5049651;28;20738;-73
2023/05/11 08:11:10;;;;;;;7.10;3.63;;;;;;;;;;5050890;28;20403;-74
2023/05/11 08:13:36;;;;;;;6.22;3.65;;;;;;;;;;5051027;28;20040;-73
2023/05/11 08:16:02;;;;;;;12.80;4.00;;;;;;;;;;5051306;28;20032;-73
2023/05/11 08:18:28;;;;;;;12.10;4.30;;;;;;;;;;5051117;28;20028;-72
2023/05/11 08:20:54;;;;;;;6.18;3.50;;;;;;;;;;5051138;28;20029;-72
2023/05/11 08:23:19;;;;;;;5.47;3.40;;;;;;;;;;5065911;28;20028;-72
2023/05/11 08:25:54;;;;;;;7.28;3.55;;;;;;;;;;5048636;28;20051;-73
2023/05/11 08:28:21;;;;;;;7.10;3.67;;;;;;;;;;5043622;28;20037;-74
2023/05/11 08:30:57;;;;;;;7.72;3.58;;;;;;;;;;5073426;28;20497;-72
2023/05/11 08:33:24;;;;;;;8.93;2.83;;;;;;;;;;5050525;28;20091;-73
2023/05/11 08:35:51;;;;;;;6.72;2.70;;;;;;;;;;5050270;28;20037;-74
2023/05/11 08:38:18;;;;;;;5.93;2.67;;;;;;;;;;5050297;28;20525;-73
2023/05/11 08:40:47;;;;;;;4.85;2.78;;;;;;;;;;5050355;28;20021;-72
2023/05/11 08:43:18;;;;;;;4.28;2.67;;;;;;;;;;5050946;28;20123;-74
2023/05/11 08:45:48;;;;;;;7.72;3.13;;;;;;;;;;5051001;28;20041;-73
2023/05/11 08:48:16;;;;;;;7.32;3.20;;;;;;;;;;5051158;28;20033;-74
2023/05/11 08:50:44;;;;;;;4.30;2.60;;;;;;;;;;5050579;28;20036;-73
2023/05/11 08:53:10;;;;;;;5.55;2.75;;;;;;;;;;5050054;28;20060;-75
2023/05/11 08:55:39;;;;;;;5.40;2.92;;;;;;;;;;5050340;28;20037;-74
2023/05/11 08:58:06;;;;;;;7.88;3.03;;;;;;;;;;5050317;28;20025;-73
2023/05/11 09:00:35;;;;;;;7.63;2.08;;;;;;;;;;5050114;28;20057;-73
2023/05/11 09:03:03;;;;;;;3.75;1.92;;;;;;;;;;5050234;28;20510;-73
2023/05/11 09:05:29;;;;;;;3.17;1.70;;;;;;;;;;5050327;28;20024;-72
2023/05/11 09:08:03;;;;;;;4.10;2.22;;;;;;;;;;5050177;28;20036;-73
2023/05/11 09:10:28;;;;;;;5.18;2.20;;;;;;;;;;5050562;28;20090;-72
2023/05/11 09:12:54;;;;;;;7.25;1.70;;;;;;;;;;5049835;28;20037;-74
2023/05/11 09:15:20;;;;;;;4.28;1.90;;;;;;;;;;5067127;28;20040;-71
2023/05/11 09:17:46;;;;;;;4.20;1.80;;;;;;;;;;5049951;28;20063;-73
2023/05/11 09:20:12;;;;;;;3.10;1.40;;;;;;;;;;5050801;28;20033;-72
2023/05/11 09:22:45;;;;;;;4.82;1.80;;;;;;;;;;5049575;28;20032;-72
2023/05/11 09:25:12;;;;;;;3.42;1.60;;;;;;;;;;5053804;28;20033;-74
2023/05/11 09:27:45;;;;;;;3.25;1.88;;;;;;;;;;5054278;28;20279;-74
2023/05/11 09:30:12;;;;;;;5.18;1.88;;;;;;;;;;5053916;28;20048;-75
2023/05/11 09:32:51;;;;;;;7.07;2.25;;;;;;;;;;5054462;28;20025;-71
2023/05/11 09:35:20;;;;;;;6.07;1.85;;;;;;;;;;5054352;28;20037;-73
2023/05/11 09:38:08;;;;;;;3.55;1.70;;;;;;;;;;5053815;28;20043;-73
2023/05/11 09:40:38;;;;;;;4.65;1.90;;;;;;;;;;5052843;28;20030;-73
2023/05/11 09:43:25;;;;;;;5.20;1.98;;;;;;;;;;5052193;28;20025;-74
2023/05/11 09:46:00;;;;;;;3.55;1.75;;;;;;;;;;5054174;28;20455;-73
2023/05/11 09:48:30;;;;;;;5.57;1.83;;;;;;;;;;5053923;28;20474;-73
2023/05/11 09:51:06;;;;;;;3.75;2.45;;;;;;;;;;5053775;28;20076;-73
2023/05/11 09:53:42;;;;;;;3.15;2.00;;;;;;;;;;5053386;28;20037;-72
2023/05/11 09:56:09;;;;;;;3.83;1.60;;;;;;;;;;5049024;28;20434;-73
2023/05/11 09:58:48;;;;;;;5.78;1.98;;;;;;;;;;5049068;28;20036;-72
2023/05/11 10:01:16;;;;;;;3.13;1.80;;;;;;;;;;5074255;28;20029;-74
2023/05/11 10:03:48;;;;;;;2.97;1.73;;;;;;;;;;5043331;28;20020;-73
2023/05/11 10:06:14;;;;;;;3.03;1.80;;;;;;;;;;5054159;28;20076;-73
2023/05/11 10:08:40;;;;;;;2.42;1.50;;;;;;;;;;5053816;28;20119;-72
2023/05/11 10:11:07;;;;;;;4.75;1.70;;;;;;;;;;5068964;28;20048;-73
2023/05/11 10:13:35;;;;;;;4.55;1.55;;;;;;;;;;5053342;28;20050;-75
2023/05/11 10:16:05;;;;;;;3.58;1.80;;;;;;;;;;5044804;28;20052;-73
2023/05/11 10:18:32;;;;;;;3.42;1.45;;;;;;;;;;5052893;28;20095;-74
2023/05/11 10:20:58;;;;;;;3.53;1.65;;;;;;;;;;5053370;28;20037;-74
2023/05/11 10:23:29;;;;;;;3.85;1.75;;;;;;;;;;5068798;28;20041;-74
2023/05/11 10:25:57;;;;;;;2.80;1.58;;;;;;;;;;5053709;28;20550;-75
2023/05/11 10:28:23;;;;;;;2.00;1.35;;;;;;;;;;5053064;28;20036;-73
2023/05/11 10:30:49;;;;;;;3.10;1.73;;;;;;;;;;5051758;28;20033;-73
2023/05/11 10:33:16;;;;;;;4.50;1.52;;;;;;;;;;5052195;28;20029;-74
2023/05/11 10:35:44;;;;;;;6.32;1.40;;;;;;;;;;5053720;28;20061;-72
2023/05/11 10:38:12;;;;;;;2.40;1.52;;;;;;;;;;5037242;28;20029;-74
2023/05/11 10:40:41;;;;;;;5.90;1.58;;;;;;;;;;5053903;28;20025;-73
2023/05/11 10:43:41;;;;;;;6.47;1.80;;;;;;;;;;5051707;28;20109;-74
2023/05/11 10:46:40;;;;;;;3.05;1.58;;;;;;;;;;5047317;28;20056;-73
2023/05/11 10:49:24;;;;;;;4.72;1.60;;;;;;;;;;5053606;28;20423;-74
2023/05/11 10:52:08;;;;;;;3.78;1.95;;;;;;;;;;5051989;28;20040;-73
2023/05/11 10:55:12;;;;;;;2.90;1.45;;;;;;;;;;5052881;28;20044;-73
2023/05/11 10:57:57;;;;;;;4.35;1.67;;;;;;;;;;5052694;28;20036;-73
2023/05/11 11:00:42;;;;;;;3.35;1.42;;;;;;;;;;5051936;28;20424;-72
2023/05/11 11:03:12;;;;;;;1.90;1.35;;;;;;;;;;5050883;28;20378;-73
2023/05/11 11:05:39;;;;;;;3.17;1.42;;;;;;;;;;5068043;28;20049;-73
2023/05/11 11:08:09;;;;;;;3.40;1.40;;;;;;;;;;5052050;28;20029;-74
2023/05/11 11:10:36;;;;;;;4.93;2.13;;;;;;;;;;5052762;28;20041;-73
2023/05/11 11:13:09;;;;;;;4.88;1.55;;;;;;;;;;5052726;28;20033;-74
2023/05/11 11:15:53;;;;;;;3.83;1.85;;;;;;;;;;5052862;28;20048;-73
2023/05/11 11:18:34;;;;;;;4.57;2.08;;;;;;;;;;5051576;28;20520;-73
2023/05/11 11:21:01;;;;;;;3.05;1.92;;;;;;;;;;5052646;28;20029;-75
2023/05/11 11:23:39;;;;;;;4.43;1.92;;;;;;;;;;5051536;28;20036;-72
2023/05/11 11:26:06;;;;;;;3.38;1.90;;;;;;;;;;5052801;28;20167;-71
2023/05/11 11:28:55;;;;;;;8.32;3.05;;;;;;;;;;5053082;28;20071;-71
2023/05/11 11:31:24;;;;;;;4.40;1.65;;;;;;;;;;5052588;28;20053;-74
2023/05/11 11:33:50;;;;;;;4.05;1.90;;;;;;;;;;5052511;28;20036;-73
2023/05/11 11:36:16;;;;;;;5.75;1.92;;;;;;;;;;5051741;28;20044;-73
2023/05/11 11:38:59;;;;;;;7.47;2.70;;;;;;;;;;5053469;28;20370;-73
2023/05/11 11:41:28;;;;;;;6.03;2.45;;;;;;;;;;5052665;28;20052;-73
2023/05/11 11:43:55;;;;;;;3.92;2.10;;;;;;;;;;5052828;28;20036;-73
2023/05/11 11:46:27;;;;;;;6.20;2.47;;;;;;;;;;5051115;28;20028;-72
2023/05/11 11:49:07;;;;;;;6.18;2.50;;;;;;;;;;5052206;28;20451;-73
2023/05/11 11:51:33;;;;;;;7.65;3.00;;;;;;;;;;5051992;28;20502;-74
2023/05/11 11:53:59;;;;;;;9.48;3.10;;;;;;;;;;5067249;28;20541;-73
2023/05/11 11:56:28;;;;;;;6.80;3.35;;;;;;;;;;5037972;28;20033;-73
2023/05/11 11:59:00;;;;;;;7.38;3.25;;;;;;;;;;5039858;28;20021;-75
2023/05/11 12:01:36;;;;;;;6.25;3.55;;;;;;;;;;5041151;28;20059;-73
2023/05/11 12:04:27;;;;;;;7.28;3.38;;;;;;;;;;5050243;28;20461;-73
2023/05/11 12:06:57;;;;;;;8.35;3.40;;;;;;;;;;5050005;28;20032;-72
2023/05/11 12:09:24;;;;;;;9.93;3.08;;;;;;;;;;5051209;28;20033;-73
2023/05/11 12:11:51;;;;;;;7.38;3.33;;;;;;;;;;5050367;28;20049;-73
2023/05/11 12:14:18;;;;;;;4.70;2.67;;;;;;;;;;5050559;28;20033;-71
2023/05/11 12:17:02;;;;;;;6.88;3.08;;;;;;;;;;5051625;28;20406;-73
2023/05/11 12:19:27;;;;;;;8.80;3.60;;;;;;;;;;5051234;28;20405;-72
2023/05/11 12:21:53;;;;;;;8.13;3.20;;;;;;;;;;5050219;28;20025;-73
2023/05/11 12:24:19;;;;;;;11.70;4.18;;;;;;;;;;5051365;28;20511;-72
2023/05/11 12:26:45;;;;;;;5.03;3.08;;;;;;;;;;5050401;28;20033;-73
2023/05/11 12:29:14;;;;;;;7.47;2.72;;;;;;;;;;5051289;28;20470;-72
2023/05/11 12:31:45;;;;;;;4.82;2.58;;;;;;;;;;5050382;28;20079;-72
2023/05/11 12:34:18;;;;;;;4.25;2.50;;;;;;;;;;5050729;28;20452;-71
2023/05/11 12:36:46;;;;;;;4.53;2.25;;;;;;;;;;5050215;28;20037;-71
2023/05/11 12:39:22;;;;;;;4.72;2.70;;;;;;;;;;5049344;28;20475;-73
2023/05/11 12:41:50;;;;;;;7.57;3.03;;;;;;;;;;5050205;28;20045;-71
2023/05/11 12:44:17;;;;;;;4.30;2.90;;;;;;;;;;5051454;28;20035;-74
2023/05/11 12:46:46;;;;;;;10.93;4.10;;;;;;;;;;5051679;28;20044;-73
2023/05/11 12:49:16;;;;;;;6.30;3.10;;;;;;;;;;5050198;28;20041;-72
2023/05/11 12:51:49;;;;;;;5.53;3.60;;;;;;;;;;5050192;28;20396;-73
2023/05/11 12:54:30;;;;;;;5.28;3.20;;;;;;;;;;5051370;28;20048;-71
2023/05/11 12:56:57;;;;;;;5.90;3.00;;;;;;;;;;5051693;28;20136;-72
2023/05/11 12:59:37;;;;;;;6.75;3.20;;;;;;;;;;5054111;28;20032;-72
2023/05/11 13:02:10;;;;;;;8.48;3.60;;;;;;;;;;5053995;28;20029;-71
2023/05/11 13:04:38;;;;;;;9.07;3.90;;;;;;;;;;5043907;28;20041;-73
2023/05/11 13:07:04;;;;;;;5.45;3.45;;;;;;;;;;5055170;28;20085;-72
2023/05/11 13:09:30;;;;;;;7.90;3.42;;;;;;;;;;5045895;28;20580;-71
2023/05/11 13:12:09;;;;;;;10.00;3.72;;;;;;;;;;5048101;28;20031;-73
2023/05/11 13:14:35;;;;;;;7.28;3.50;;;;;;;;;;5051016;28;20041;-73
2023/05/11 13:17:01;;;;;;;7.88;3.63;;;;;;;;;;5052937;28;20384;-72
2023/05/11 13:19:28;;;;;;;8.27;2.53;;;;;;;;;;5044583;28;20021;-73
2023/05/11 13:21:55;;;;;;;8.75;2.70;;;;;;;;;;5051700;28;20028;-73
2023/05/11 13:24:22;;;;;;;7.93;2.90;;;;;;;;;;5052879;28;20092;-72
2023/05/11 13:26:47;;;;;;;10.25;2.72;;;;;;;;;;5049447;28;20028;-72
2023/05/11 13:29:13;;;;;;;3.25;2.38;;;;;;;;;;5040242;28;20060;-72
2023/05/11 13:31:47;;;;;;;7.00;2.58;;;;;;;;;;5050676;28;20025;-74
2023/05/11 13:34:17;;;;;;;10.50;3.05;;;;;;;;;;5069800;28;20489;-74
2023/05/11 13:36:44;;;;;;;14.10;3.30;;;;;;;;;;5053162;28;20029;-73
2023/05/11 13:39:10;;;;;;;6.88;3.33;;;;;;;;;;5054068;28;20031;-74
2023/05/11 13:41:36;;;;;;;6.75;3.13;;;;;;;;;;5053575;28;20060;-72
2023/05/11 13:44:02;;;;;;;8.10;3.20;;;;;;;;;;5054179;28;20037;-73
2023/05/11 13:46:27;;;;;;;6.75;3.13;;;;;;;;;;5046138;28;20029;-72
2023/05/11 13:48:54;;;;;;;7.60;3.15;;;;;;;;;;5053574;28;20027;-72
2023/05/11 13:51:21;;;;;;;8.07;2.90;;;;;;;;;;5054693;28;20040;-72
2023/05/11 13:53:48;;;;;;;5.40;2.42;;;;;;;;;;5051008;28;20033;-72
2023/05/11 13:56:15;;;;;;;5.25;2.80;;;;;;;;;;5043067;28;20408;-72
2023/05/11 13:58:41;;;;;;;7.47;2.83;;;;;;;;;;5052945;28;20032;-72
2023/05/11 14:01:07;;;;;;;6.65;3.20;;;;;;;;;;5045568;28;20437;-72
2023/05/11 14:03:33;;;;;;;7.65;2.92;;;;;;;;;;5050285;28;20043;-73
2023/05/11 14:05:58;;;;;;;8.40;3.13;;;;;;;;;;5044467;28;20417;-73
2023/05/11 14:08:24;;;;;;;8.95;3.78;;;;;;;;;;5063448;28;20106;-73
2023/05/11 14:10:50;;;;;;;6.43;3.10;;;;;;;;;;5050498;28;20048;-72
2023/05/11 14:13:17;;;;;;;11.27;3.53;;;;;;;;;;5052968;28;20099;-71
2023/05/11 14:15:43;;;;;;;10.00;3.25;;;;;;;;;;5047208;28;20032;-72
2023/05/11 14:18:09;;;;;;;8.18;3.33;;;;;;;;;;5052145;28;20021;-71
2023/05/11 14:20:39;;;;;;;9.70;3.28;;;;;;;;;;5050784;28;20048;-73
2023/05/11 14:23:05;;;;;;;8.30;3.17;;;;;;;;;;5049524;28;20033;-73
2023/05/11 14:25:31;;;;;;;5.80;3.40;;;;;;;;;;5046968;28;20021;-72
2023/05/11 14:27:57;;;;;;;7.10;3.15;;;;;;;;;;5044985;28;20550;-72
2023/05/11 14:30:23;;;;;;;8.18;3.13;;;;;;;;;;5045099;28;20116;-74
2023/05/11 14:32:51;;;;;;;6.97;3.47;;;;;;;;;;5050550;28;20108;-72
2023/05/11 14:35:17;;;;;;;7.65;3.53;;;;;;;;;;5045285;28;20061;-72
2023/05/11 14:37:44;;;;;;;5.30;3.17;;;;;;;;;;5048478;28;20079;-72
2023/05/11 14:40:10;;;;;;;8.40;3.20;;;;;;;;;;5047184;28;20144;-73
2023/05/11 14:42:36;;;;;;;8.30;3.38;;;;;;;;;;5039537;28;20116;-72
2023/05/11 14:45:01;;;;;;;8.52;3.10;;;;;;;;;;5043037;28;20025;-73